createdAt,value
2022-12-13T00:06:13.515Z,99.80
2022-12-13T00:21:19.512Z,99.50
2022-12-13T00:36:23.988Z,99.40
2022-12-13T00:51:30.511Z,98.60
2022-12-13T01:06:37.915Z,98.60
2022-12-13T01:21:42.357Z,98.30
2022-12-13T01:36:48.203Z,98.30
2022-12-13T01:51:57.168Z,98.10
2022-12-13T02:07:01.768Z,97.60
2022-12-13T02:22:20.176Z,97.40
2022-12-13T02:37:29.957Z,97.20
2022-12-13T02:52:35.310Z,97.10
2022-12-13T03:07:47.341Z,96.70
2022-12-13T03:22:52.418Z,96.40
2022-12-13T03:37:57.037Z,96.50
2022-12-13T03:53:03.755Z,96.60
2022-12-13T04:08:21.591Z,96.70
2022-12-13T04:23:27.022Z,96.50
2022-12-13T04:38:31.433Z,96.30
2022-12-13T04:53:35.891Z,96.20
2022-12-13T05:08:40.613Z,96.40
2022-12-13T05:23:45.088Z,96.00
2022-12-13T05:38:49.578Z,95.90
2022-12-13T05:53:54.138Z,96.00
2022-12-13T06:09:00.255Z,96.10
2022-12-13T06:24:05.604Z,96.20
2022-12-13T06:39:10.156Z,95.90
2022-12-13T06:54:14.814Z,96.30
2022-12-13T07:09:19.256Z,96.30
2022-12-13T07:24:25.592Z,96.60
2022-12-13T07:39:32.225Z,97.20
2022-12-13T07:54:36.670Z,96.20
2022-12-13T08:09:41.204Z,96.30
2022-12-13T08:24:45.623Z,96.00
2022-12-13T08:39:50.165Z,95.50
2022-12-13T08:54:54.751Z,95.40
2022-12-13T09:09:59.359Z,95.40
2022-12-13T09:25:24.398Z,95.40
2022-12-13T09:40:30.248Z,95.20
2022-12-13T09:55:45.825Z,94.70
2022-12-13T10:10:51.490Z,94.70
2022-12-13T10:26:03.050Z,94.20
2022-12-13T10:41:28.565Z,94.10
2022-12-13T10:56:39.159Z,94.10
2022-12-13T11:11:45.351Z,93.40
2022-12-13T11:26:56.820Z,93.10
2022-12-13T11:42:09.345Z,92.90
2022-12-13T11:57:24.446Z,92.50
2022-12-13T12:12:34.705Z,91.90
2022-12-13T12:27:47.550Z,91.70
2022-12-13T12:43:14.991Z,91.70
2022-12-13T12:58:29.004Z,91.80
2022-12-13T13:13:47.230Z,92.00
2022-12-13T13:28:51.854Z,91.30
2022-12-13T13:43:56.286Z,90.50
2022-12-13T13:59:41.704Z,89.00
2022-12-13T14:15:23.637Z,88.50
2022-12-13T14:30:29.473Z,87.60
2022-12-13T14:45:36.580Z,87.90
2022-12-13T15:00:42.521Z,87.50
2022-12-13T15:15:54.954Z,88.00
2022-12-13T15:31:05.014Z,89.40
2022-12-13T15:46:10.181Z,88.30
2022-12-13T16:01:28.060Z,88.30
2022-12-13T16:16:33.130Z,88.10
2022-12-13T16:31:37.724Z,88.90
2022-12-13T16:47:11.689Z,88.70
2022-12-13T17:02:07.304Z,87.90
2022-12-13T17:17:17.304Z,89.10
2022-12-13T17:32:22.289Z,89.70
2022-12-13T17:47:26.763Z,88.30
2022-12-13T18:02:31.221Z,89.70
2022-12-13T18:18:09.531Z,90.10
2022-12-13T18:33:01.225Z,90.40
2022-12-13T18:48:06.230Z,90.50
2022-12-13T19:03:10.732Z,90.50
2022-12-13T19:18:15.391Z,90.90
2022-12-13T19:33:19.920Z,91.30
2022-12-13T19:48:24.346Z,91.00
2022-12-13T20:03:29.444Z,91.30
2022-12-13T20:18:34.750Z,91.40
2022-12-13T20:33:39.924Z,91.40
2022-12-13T20:48:45.850Z,91.60
2022-12-13T21:03:50.491Z,91.60
